Time;durP1;ratioP1;P1;durP2;ratioP2;P2;SDS_P1;SDS_P2;PMS_P1;PMS_P2;Temp;Humidity;BMP_temperature;BMP_pressure;BME280_temperature;BME280_humidity;BME280_pressure;Samples;Min_cycle;Max_cycle;Signal;HPM_P1;HPM_P2
2022/09/30 00:01:50;;;;;;;4.55;4.15;;;8.50;99.90;;;;;;5077490;28;20042;-67
2022/09/30 00:04:21;;;;;;;5.50;4.18;;;8.50;99.90;;;;;;5082200;28;20040;-67
2022/09/30 00:06:48;;;;;;;5.90;4.20;;;8.50;99.90;;;;;;5081491;28;20385;-67
2022/09/30 00:09:14;;;;;;;7.53;4.88;;;8.50;99.90;;;;;;5079999;28;20075;-67
2022/09/30 00:11:41;;;;;;;4.82;4.32;;;8.40;99.90;;;;;;5089802;28;20029;-67
2022/09/30 00:14:16;;;;;;;7.22;4.38;;;8.40;99.90;;;;;;5081667;28;20423;-67
2022/09/30 00:16:42;;;;;;;5.20;4.00;;;8.40;99.90;;;;;;5081466;28;20043;-67
2022/09/30 00:19:09;;;;;;;4.97;4.47;;;8.40;99.90;;;;;;5082611;28;20458;-67
2022/09/30 00:21:34;;;;;;;4.68;3.88;;;8.50;99.90;;;;;;5077349;28;20045;-67
2022/09/30 00:24:01;;;;;;;4.28;3.85;;;8.50;99.90;;;;;;5065837;28;20059;-66
2022/09/30 00:26:27;;;;;;;5.75;4.25;;;8.40;99.90;;;;;;5062965;28;20367;-66
2022/09/30 00:28:55;;;;;;;5.20;4.70;;;8.40;99.90;;;;;;5080961;28;20076;-67
2022/09/30 00:31:22;;;;;;;4.55;4.03;;;8.40;99.90;;;;;;5082108;28;20109;-67
2022/09/30 00:34:10;;;;;;;4.85;4.32;;;8.40;99.90;;;;;;5078586;28;20370;-67
2022/09/30 00:36:42;;;;;;;5.63;4.93;;;8.30;99.90;;;;;;5066542;28;20044;-67
2022/09/30 00:39:11;;;;;;;4.07;3.67;;;8.30;99.90;;;;;;5082885;28;20442;-67
2022/09/30 00:41:38;;;;;;;6.28;4.05;;;8.30;99.90;;;;;;5079814;28;20055;-66
2022/09/30 00:44:42;;;;;;;4.53;3.85;;;8.30;99.90;;;;;;5081908;28;20040;-67
2022/09/30 00:47:27;;;;;;;4.30;3.45;;;8.20;99.90;;;;;;5077727;28;20126;-66
2022/09/30 00:49:55;;;;;;;7.05;4.78;;;8.10;99.90;;;;;;5078102;28;20097;-67
2022/09/30 00:52:21;;;;;;;3.72;3.00;;;8.10;99.90;;;;;;5065338;28;20059;-67
2022/09/30 00:54:47;;;;;;;5.65;3.70;;;8.10;99.90;;;;;;5065784;28;20181;-67
2022/09/30 00:57:12;;;;;;;3.88;3.00;;;8.10;99.90;;;;;;5082046;28;20036;-67
2022/09/30 00:59:42;;;;;;;5.43;4.05;;;8.00;99.90;;;;;;5068609;28;20051;-67
2022/09/30 01:02:09;;;;;;;4.82;3.38;;;8.00;99.90;;;;;;5082636;28;20495;-67
2022/09/30 01:04:36;;;;;;;3.42;2.97;;;8.00;99.90;;;;;;5066241;28;20111;-67
2022/09/30 01:07:06;;;;;;;4.78;4.15;;;8.00;99.90;;;;;;5083499;28;20324;-67
2022/09/30 01:09:37;;;;;;;4.97;4.25;;;8.00;99.90;;;;;;5083212;28;20066;-67
2022/09/30 01:12:08;;;;;;;4.30;3.90;;;7.90;99.90;;;;;;5080888;28;20526;-67
2022/09/30 01:14:34;;;;;;;4.13;3.70;;;7.80;99.90;;;;;;5075702;28;20408;-67
2022/09/30 01:17:26;;;;;;;6.57;4.30;;;7.90;99.90;;;;;;5070200;28;20436;-67
2022/09/30 01:20:12;;;;;;;6.53;3.35;;;7.80;99.90;;;;;;5084291;28;20035;-67
2022/09/30 01:22:53;;;;;;;4.70;3.50;;;7.70;99.90;;;;;;5080635;28;20044;-67
2022/09/30 01:25:52;;;;;;;3.75;2.88;;;7.70;99.90;;;;;;5084672;28;20043;-67
2022/09/30 01:28:46;;;;;;;4.43;3.20;;;7.60;99.90;;;;;;5076520;28;20069;-67
2022/09/30 01:31:42;;;;;;;4.93;3.42;;;7.50;99.90;;;;;;5086327;28;20085;-67
2022/09/30 01:34:21;;;;;;;4.43;3.10;;;7.50;99.90;;;;;;5078938;28;20053;-67
2022/09/30 01:37:11;;;;;;;3.28;2.97;;;7.40;99.90;;;;;;5084025;28;20035;-67
2022/09/30 01:39:55;;;;;;;3.88;3.15;;;7.40;99.90;;;;;;5077928;28;20177;-67
2022/09/30 01:43:13;;;;;;;6.28;3.53;;;7.30;99.90;;;;;;5077768;28;20054;-67
2022/09/30 01:46:07;;;;;;;3.30;2.70;;;7.30;99.90;;;;;;5026887;28;20061;-67
2022/09/30 01:48:56;;;;;;;3.60;2.70;;;7.20;99.90;;;;;;5078715;28;20063;-67
2022/09/30 01:51:38;;;;;;;2.67;2.45;;;7.20;99.90;;;;;;5081455;28;20039;-67
2022/09/30 01:54:07;;;;;;;3.08;2.63;;;7.20;99.90;;;;;;5079598;28;20086;-67
2022/09/30 01:56:46;;;;;;;4.38;2.90;;;7.10;99.90;;;;;;5075090;28;20105;-67
2022/09/30 01:59:18;;;;;;;6.38;4.05;;;7.10;99.90;;;;;;5078468;28;20048;-67
2022/09/30 02:01:52;;;;;;;6.68;3.85;;;7.10;99.90;;;;;;5084037;28;20045;-67
2022/09/30 02:04:40;;;;;;;5.32;3.70;;;7.10;99.90;;;;;;5082280;28;20051;-67
2022/09/30 02:07:11;;;;;;;5.28;3.40;;;7.10;99.90;;;;;;5080186;28;20051;-67
2022/09/30 02:10:13;;;;;;;4.28;3.40;;;7.10;99.90;;;;;;5079133;28;20054;-67
2022/09/30 02:12:46;;;;;;;5.25;4.75;;;7.10;99.90;;;;;;5010242;28;20056;-67
2022/09/30 02:15:17;;;;;;;7.38;4.30;;;7.00;99.90;;;;;;5057579;28;20480;-67
2022/09/30 02:17:54;;;;;;;5.07;4.57;;;7.10;99.90;;;;;;5082103;28;20474;-67
2022/09/30 02:20:26;;;;;;;5.90;4.45;;;7.10;99.90;;;;;;5075771;28;20094;-68
2022/09/30 02:23:01;;;;;;;6.32;4.72;;;7.00;99.90;;;;;;5062655;28;20102;-67
2022/09/30 02:25:41;;;;;;;5.43;4.72;;;7.00;99.90;;;;;;5077957;28;20040;-67
2022/09/30 02:28:10;;;;;;;5.63;5.05;;;7.00;99.90;;;;;;5079192;28;20458;-67
2022/09/30 02:30:41;;;;;;;4.95;4.45;;;7.00;99.90;;;;;;5078122;28;20345;-67
2022/09/30 02:33:12;;;;;;;4.18;3.78;;;7.00;99.90;;;;;;5076705;28;20113;-67
2022/09/30 02:35:46;;;;;;;6.03;3.80;;;7.00;99.90;;;;;;5076093;28;20264;-67
2022/09/30 02:38:25;;;;;;;4.25;3.85;;;7.00;99.90;;;;;;5081164;28;20043;-67
2022/09/30 02:41:01;;;;;;;5.47;3.95;;;6.90;99.90;;;;;;5075254;28;20059;-67
2022/09/30 02:43:28;;;;;;;4.75;4.32;;;6.90;99.90;;;;;;5080040;28;20083;-67
2022/09/30 02:46:24;;;;;;;5.13;4.15;;;6.80;99.90;;;;;;5079003;28;20044;-67
2022/09/30 02:48:56;;;;;;;5.75;4.10;;;6.80;99.90;;;;;;5077178;28;20051;-67
2022/09/30 02:52:01;;;;;;;4.45;3.60;;;6.70;99.90;;;;;;5081858;28;20391;-67
2022/09/30 02:54:38;;;;;;;4.07;3.67;;;6.70;99.90;;;;;;5077185;28;20048;-67
2022/09/30 02:57:21;;;;;;;4.53;4.10;;;6.70;99.90;;;;;;5079496;28;20052;-67
2022/09/30 02:59:51;;;;;;;4.97;4.35;;;6.70;99.90;;;;;;5080605;28;20472;-67
2022/09/30 03:02:18;;;;;;;6.30;4.35;;;6.70;99.90;;;;;;5085660;28;20040;-67
2022/09/30 03:04:46;;;;;;;5.75;4.35;;;6.60;99.90;;;;;;5085701;28;20528;-67
2022/09/30 03:07:11;;;;;;;4.20;3.80;;;6.60;99.90;;;;;;5080180;28;20079;-67
2022/09/30 03:09:38;;;;;;;5.13;3.70;;;6.60;99.90;;;;;;5084242;28;20299;-67
2022/09/30 03:12:13;;;;;;;4.75;3.35;;;6.60;99.90;;;;;;5077173;28;20044;-67
2022/09/30 03:14:50;;;;;;;5.25;3.85;;;6.50;99.90;;;;;;5084254;28;20538;-67
2022/09/30 03:17:34;;;;;;;4.25;3.85;;;6.50;99.90;;;;;;5083108;28;20033;-67
2022/09/30 03:20:24;;;;;;;4.15;3.70;;;6.50;99.90;;;;;;5081284;28;20123;-67
2022/09/30 03:22:58;;;;;;;3.97;3.35;;;6.40;99.90;;;;;;5066294;28;20439;-67
2022/09/30 03:25:37;;;;;;;3.67;3.35;;;6.30;99.90;;;;;;5084208;28;20051;-67
2022/09/30 03:28:15;;;;;;;5.57;4.13;;;6.30;99.90;;;;;;5079144;28;20052;-67
2022/09/30 03:30:57;;;;;;;4.40;3.90;;;6.30;99.90;;;;;;5082177;28;20091;-67
2022/09/30 03:33:44;;;;;;;6.85;3.90;;;6.30;99.90;;;;;;5083467;28;20389;-67
2022/09/30 03:36:18;;;;;;;4.20;3.80;;;6.30;99.90;;;;;;5084751;28;20564;-67
2022/09/30 03:38:44;;;;;;;;;;;6.20;99.90;;;;;;5083329;28;20044;-67
2022/09/30 03:41:26;;;;;;;5.03;3.85;;;6.20;99.90;;;;;;5080380;28;19916;-67
2022/09/30 03:44:21;;;;;;;4.28;3.88;;;6.10;99.90;;;;;;5077445;28;20075;-67
2022/09/30 03:47:01;;;;;;;11.43;4.60;;;6.20;99.90;;;;;;5069192;28;20119;-67
2022/09/30 03:49:31;;;;;;;7.82;5.25;;;6.10;99.90;;;;;;5081704;28;20426;-67
2022/09/30 03:51:58;;;;;;;7.38;5.90;;;6.10;99.90;;;;;;5080743;28;20036;-67
2022/09/30 03:54:24;;;;;;;5.82;5.32;;;6.20;99.90;;;;;;5082009;28;20566;-67
2022/09/30 03:56:50;;;;;;;5.18;4.68;;;6.10;99.90;;;;;;5084913;28;20054;-67
2022/09/30 03:59:23;;;;;;;6.65;4.72;;;6.20;99.90;;;;;;5084254;28;20043;-67
2022/09/30 04:01:49;;;;;;;8.07;6.13;;;6.10;99.90;;;;;;5079719;28;20068;-67
2022/09/30 04:04:15;;;;;;;6.53;5.75;;;6.10;99.90;;;;;;5078544;28;20051;-67
2022/09/30 04:06:40;;;;;;;6.88;5.32;;;6.10;99.90;;;;;;5083106;28;20533;-67
2022/09/30 04:09:06;;;;;;;6.20;4.95;;;6.00;99.90;;;;;;5077499;28;20476;-67
2022/09/30 04:11:32;;;;;;;5.60;4.55;;;6.00;99.90;;;;;;5078650;28;20067;-67
2022/09/30 04:14:00;;;;;;;6.15;5.20;;;6.00;99.90;;;;;;5063820;28;21034;-67
2022/09/30 04:16:29;;;;;;;5.75;5.18;;;5.90;99.90;;;;;;5078393;28;20040;-67
2022/09/30 04:18:55;;;;;;;5.53;4.90;;;5.90;99.90;;;;;;5081155;28;20051;-68
2022/09/30 04:21:22;;;;;;;6.90;5.03;;;5.80;99.90;;;;;;5081768;28;20036;-67
2022/09/30 04:23:48;;;;;;;5.63;5.10;;;5.90;99.90;;;;;;5081720;28;20165;-67
2022/09/30 04:26:16;;;;;;;5.25;4.78;;;5.80;99.90;;;;;;5082947;28;20044;-68
2022/09/30 04:28:42;;;;;;;6.10;4.53;;;5.80;99.90;;;;;;5063425;28;20048;-68
2022/09/30 04:31:10;;;;;;;4.85;4.35;;;5.80;99.90;;;;;;5079748;28;20036;-67
2022/09/30 04:33:37;;;;;;;9.10;5.22;;;5.80;99.90;;;;;;5078633;28;20028;-67
2022/09/30 04:36:03;;;;;;;5.68;4.97;;;5.70;99.90;;;;;;5073924;28;20040;-67
2022/09/30 04:38:29;;;;;;;6.65;5.10;;;5.70;99.90;;;;;;5082087;28;20120;-67
2022/09/30 04:40:56;;;;;;;6.30;5.70;;;5.70;99.90;;;;;;5079704;28;20047;-67
2022/09/30 04:43:23;;;;;;;7.32;6.40;;;5.60;99.90;;;;;;5078582;28;20036;-67
2022/09/30 04:45:51;;;;;;;6.55;5.95;;;5.60;99.90;;;;;;5077385;28;20045;-67
2022/09/30 04:48:17;;;;;;;5.85;5.28;;;5.60;99.90;;;;;;5082918;28;20045;-67
2022/09/30 04:50:43;;;;;;;6.35;5.75;;;5.60;99.90;;;;;;5076416;28;20040;-68
2022/09/30 04:53:11;;;;;;;8.68;6.43;;;5.50;99.90;;;;;;5080897;28;20419;-67
2022/09/30 04:55:37;;;;;;;8.45;7.30;;;5.50;99.90;;;;;;5081065;28;20101;-68
2022/09/30 04:58:03;;;;;;;9.15;7.88;;;5.50;99.90;;;;;;5080500;28;20041;-68
2022/09/30 05:00:29;;;;;;;7.63;6.90;;;5.50;99.90;;;;;;5081544;28;20211;-68
2022/09/30 05:02:55;;;;;;;7.82;6.88;;;5.50;99.90;;;;;;5080783;28;20028;-68
2022/09/30 05:05:20;;;;;;;7.95;7.15;;;5.50;99.90;;;;;;5079109;28;21095;-68
2022/09/30 05:07:46;;;;;;;8.18;7.38;;;5.50;99.90;;;;;;5064758;28;20446;-68
2022/09/30 05:10:12;;;;;;;9.02;8.15;;;5.50;99.90;;;;;;5081961;28;20051;-68
2022/09/30 05:12:39;;;;;;;9.85;8.55;;;5.50;99.90;;;;;;5080605;28;20536;-68
2022/09/30 05:15:06;;;;;;;9.00;8.18;;;5.60;99.90;;;;;;5080026;28;20760;-68
2022/09/30 05:17:32;;;;;;;8.63;7.68;;;5.60;99.90;;;;;;5084370;28;20115;-68
2022/09/30 05:19:59;;;;;;;9.65;8.65;;;5.60;99.90;;;;;;5078947;28;20040;-68
2022/09/30 05:22:26;;;;;;;9.98;7.82;;;5.60;99.90;;;;;;5076061;28;20032;-68
2022/09/30 05:24:51;;;;;;;8.73;7.45;;;5.60;99.90;;;;;;5079025;28;20169;-68
2022/09/30 05:27:18;;;;;;;9.32;7.68;;;5.60;99.90;;;;;;5077183;28;20051;-68
2022/09/30 05:29:44;;;;;;;8.80;7.22;;;5.60;99.90;;;;;;5078383;28;20535;-68
2022/09/30 05:32:10;;;;;;;8.02;7.22;;;5.60;99.90;;;;;;5077704;28;20097;-69
2022/09/30 05:34:37;;;;;;;12.98;7.75;;;5.50;99.90;;;;;;5061764;28;20079;-68
2022/09/30 05:37:04;;;;;;;10.93;8.23;;;5.50;99.90;;;;;;5083018;28;20058;-69
2022/09/30 05:39:30;;;;;;;8.60;7.43;;;5.50;99.90;;;;;;5080515;28;20048;-69
2022/09/30 05:41:57;;;;;;;8.13;7.38;;;5.50;99.90;;;;;;5074950;28;20033;-69
2022/09/30 05:44:22;;;;;;;8.70;7.80;;;5.50;99.90;;;;;;5078466;28;20463;-69
2022/09/30 05:46:48;;;;;;;10.13;9.13;;;5.50;99.90;;;;;;5056126;28;20071;-69
2022/09/30 05:49:14;;;;;;;10.32;8.38;;;5.50;99.90;;;;;;5080464;28;20071;-69
2022/09/30 05:51:39;;;;;;;9.18;7.93;;;5.50;99.90;;;;;;5078170;28;20040;-68
2022/09/30 05:54:05;;;;;;;10.77;8.73;;;5.50;99.90;;;;;;5078029;28;20612;-68
2022/09/30 05:56:33;;;;;;;10.13;9.05;;;5.40;99.90;;;;;;5073919;28;20444;-70
2022/09/30 05:58:59;;;;;;;9.98;8.65;;;5.40;99.90;;;;;;5074324;28;20117;-70
2022/09/30 06:01:25;;;;;;;9.18;7.95;;;5.50;99.90;;;;;;5071798;28;20484;-70
2022/09/30 06:03:51;;;;;;;9.25;7.97;;;5.50;99.90;;;;;;5077373;28;20037;-70
2022/09/30 06:06:18;;;;;;;10.07;8.70;;;5.40;99.90;;;;;;5077416;28;20047;-71
2022/09/30 06:08:44;;;;;;;9.18;8.27;;;5.50;99.90;;;;;;5056565;28;20052;-70
2022/09/30 06:11:16;;;;;;;11.20;9.25;;;5.50;99.90;;;;;;5080557;28;20055;-67
2022/09/30 06:13:43;;;;;;;10.82;9.40;;;5.60;99.90;;;;;;5074919;28;20048;-69
2022/09/30 06:16:11;;;;;;;15.95;12.55;;;5.60;99.90;;;;;;5079846;28;20103;-69
2022/09/30 06:18:40;;;;;;;14.93;12.55;;;5.60;99.90;;;;;;5080780;28;20057;-69
2022/09/30 06:21:09;;;;;;;15.82;12.13;;;5.70;99.90;;;;;;5080067;28;20576;-70
2022/09/30 06:23:35;;;;;;;15.25;12.23;;;5.80;99.90;;;;;;5066010;28;20056;-69
2022/09/30 06:26:03;;;;;;;12.77;11.38;;;5.80;99.90;;;;;;5061439;28;20044;-69
2022/09/30 06:28:28;;;;;;;17.40;12.60;;;5.90;99.90;;;;;;5079004;28;20588;-70
2022/09/30 06:30:54;;;;;;;15.05;13.48;;;6.00;99.90;;;;;;5078888;28;20068;-69
2022/09/30 06:33:20;;;;;;;17.30;13.32;;;6.10;99.90;;;;;;5072275;28;20404;-69
2022/09/30 06:35:46;;;;;;;17.48;12.77;;;6.20;99.90;;;;;;5063529;28;20097;-69
2022/09/30 06:38:14;;;;;;;13.80;12.40;;;6.40;99.90;;;;;;5076598;28;20047;-69
2022/09/30 06:40:45;;;;;;;15.25;13.68;;;6.60;99.90;;;;;;5081685;28;20093;-69
2022/09/30 06:43:10;;;;;;;18.98;14.65;;;6.70;99.90;;;;;;5080787;28;20046;-69
2022/09/30 06:45:37;;;;;;;20.10;15.65;;;6.90;99.90;;;;;;5063773;28;20399;-69
2022/09/30 06:48:04;;;;;;;17.08;15.27;;;7.10;99.90;;;;;;5078219;28;20044;-69
2022/09/30 06:50:31;;;;;;;19.20;16.35;;;7.20;99.90;;;;;;5073711;28;20075;-69
2022/09/30 06:52:58;;;;;;;17.88;15.85;;;7.40;99.90;;;;;;5080131;28;20044;-69
2022/09/30 06:55:26;;;;;;;17.88;15.18;;;7.50;99.90;;;;;;5075475;28;20053;-69
2022/09/30 06:57:54;;;;;;;16.95;14.93;;;7.60;99.90;;;;;;5083006;28;20057;-69
2022/09/30 07:00:20;;;;;;;16.15;14.35;;;7.80;99.90;;;;;;5081561;28;20036;-69
2022/09/30 07:02:47;;;;;;;16.75;14.80;;;8.00;99.90;;;;;;5077273;28;20081;-69
2022/09/30 07:05:14;;;;;;;16.00;14.40;;;8.20;99.90;;;;;;5073830;28;20047;-69
2022/09/30 07:07:41;;;;;;;18.70;14.55;;;8.40;99.90;;;;;;5064911;28;20051;-69
2022/09/30 07:10:07;;;;;;;17.00;14.25;;;8.60;99.90;;;;;;5078257;28;20045;-69
2022/09/30 07:12:33;;;;;;;23.23;15.82;;;8.80;99.90;;;;;;5076948;28;20052;-69
2022/09/30 07:14:59;;;;;;;19.48;16.67;;;8.90;99.90;;;;;;5075150;28;20052;-70
2022/09/30 07:17:26;;;;;;;22.00;16.60;;;8.90;99.90;;;;;;5079790;28;20048;-70
2022/09/30 07:19:52;;;;;;;24.73;17.08;;;9.00;99.90;;;;;;5076904;28;20256;-69
2022/09/30 07:22:28;;;;;;;29.52;17.48;;;9.10;99.90;;;;;;5078378;28;20518;-69
2022/09/30 07:25:02;;;;;;;27.73;17.25;;;9.20;99.90;;;;;;5074739;28;20044;-69
2022/09/30 07:27:31;;;;;;;25.83;17.17;;;9.30;99.90;;;;;;5075891;28;20115;-69
2022/09/30 07:29:58;;;;;;;26.55;19.00;;;9.60;99.90;;;;;;5081957;28;20044;-68
2022/09/30 07:32:24;;;;;;;24.15;16.17;;;9.80;99.90;;;;;;5078975;28;20051;-69
2022/09/30 07:34:50;;;;;;;32.92;15.95;;;9.90;99.90;;;;;;5076098;28;20037;-69
2022/09/30 07:37:17;;;;;;;52.90;16.95;;;9.80;99.90;;;;;;5077612;28;20075;-69
2022/09/30 07:39:46;;;;;;;33.13;17.45;;;9.80;99.90;;;;;;5074201;28;20141;-69
2022/09/30 07:42:18;;;;;;;27.35;17.30;;;9.80;99.90;;;;;;5074986;28;20036;-69
2022/09/30 07:44:44;;;;;;;28.08;16.92;;;9.90;99.90;;;;;;5078460;28;20051;-69
2022/09/30 07:47:11;;;;;;;24.30;17.08;;;10.10;99.90;;;;;;5077137;28;20040;-69
2022/09/30 07:49:37;;;;;;;23.38;16.83;;;10.20;99.90;;;;;;5083357;28;20052;-69
2022/09/30 07:52:03;;;;;;;24.88;17.05;;;10.50;99.90;;;;;;5081373;28;20052;-69
2022/09/30 07:54:32;;;;;;;20.52;15.85;;;10.60;99.90;;;;;;5099507;28;20041;-69
2022/09/30 07:57:00;;;;;;;20.25;15.57;;;10.80;99.90;;;;;;5079819;28;20041;-69
2022/09/30 07:59:27;;;;;;;21.63;15.63;;;11.20;99.90;;;;;;5086616;28;20071;-69
2022/09/30 08:01:53;;;;;;;16.73;14.13;;;11.90;99.90;;;;;;5079133;28;20594;-69
2022/09/30 08:04:20;;;;;;;15.88;14.07;;;12.90;99.90;;;;;;5080814;28;20032;-69
2022/09/30 08:06:52;;;;;;;14.75;13.20;;;14.00;99.90;;;;;;5078733;28;20125;-70
2022/09/30 08:09:20;;;;;;;12.80;10.63;;;15.30;99.90;;;;;;5080336;28;20105;-70
2022/09/30 08:11:46;;;;;;;12.95;10.50;;;16.40;99.90;;;;;;5082036;28;20066;-70
2022/09/30 08:14:15;;;;;;;10.85;9.82;;;17.20;99.90;;;;;;5085820;28;20085;-70
2022/09/30 08:16:40;;;;;;;10.15;9.15;;;17.90;99.90;;;;;;5082019;28;20046;-70
2022/09/30 08:19:06;;;;;;;10.50;8.82;;;18.40;99.90;;;;;;5084431;28;20126;-70
2022/09/30 08:21:32;;;;;;;9.70;7.88;;;18.80;99.90;;;;;;5080470;28;20032;-70
2022/09/30 08:23:58;;;;;;;9.13;7.55;;;19.50;99.90;;;;;;5086765;28;20036;-70
2022/09/30 08:26:23;;;;;;;7.38;6.75;;;20.10;99.90;;;;;;5080292;28;20403;-70
2022/09/30 08:28:49;;;;;;;6.60;6.00;;;20.40;99.90;;;;;;5066420;28;20048;-70
2022/09/30 08:31:21;;;;;;;5.93;5.32;;;20.80;99.90;;;;;;5085960;28;20040;-70
2022/09/30 08:33:47;;;;;;;6.03;5.43;;;21.10;99.90;;;;;;5086318;28;20032;-70
2022/09/30 08:36:22;;;;;;;5.40;5.00;;;21.50;99.90;;;;;;5081664;28;20396;-70
2022/09/30 08:38:49;;;;;;;6.28;5.28;;;22.00;99.90;;;;;;5079795;28;20040;-70
2022/09/30 08:41:24;;;;;;;5.18;4.78;;;22.50;99.90;;;;;;5083397;28;20047;-70
2022/09/30 08:44:16;;;;;;;4.93;4.53;;;22.90;97.90;;;;;;5077346;28;20326;-70
2022/09/30 08:46:53;;;;;;;4.40;3.90;;;23.40;96.50;;;;;;5080341;28;20055;-70
2022/09/30 08:49:28;;;;;;;7.15;3.95;;;23.70;95.70;;;;;;5080108;28;20051;-70
2022/09/30 08:51:55;;;;;;;4.97;3.80;;;23.90;92.80;;;;;;5083615;28;20044;-70
2022/09/30 08:54:24;;;;;;;4.55;3.75;;;23.80;90.00;;;;;;5077077;28;20071;-71
2022/09/30 08:56:50;;;;;;;4.13;3.72;;;23.80;89.20;;;;;;5077004;28;20347;-71
2022/09/30 08:59:34;;;;;;;3.95;3.65;;;23.70;85.40;;;;;;5080238;28;20059;-71
2022/09/30 09:02:09;;;;;;;;;;;23.90;86.20;;;;;;5078679;28;20040;-71
2022/09/30 09:04:35;;;;;;;3.60;3.30;;;24.10;90.10;;;;;;5073306;28;20386;-71
2022/09/30 09:07:10;;;;;;;4.45;3.20;;;24.00;87.20;;;;;;5078394;28;20071;-71
2022/09/30 09:09:51;;;;;;;3.20;2.90;;;24.20;88.30;;;;;;5078217;28;20039;-71
2022/09/30 09:12:58;;;;;;;3.28;2.58;;;24.60;85.60;;;;;;5079892;28;20052;-71
2022/09/30 09:15:33;;;;;;;3.40;2.50;;;24.90;79.40;;;;;;5039398;28;20051;-71
2022/09/30 09:18:17;;;;;;;2.47;2.13;;;25.20;76.70;;;;;;5080305;28;20052;-71
2022/09/30 09:21:18;;;;;;;2.17;1.98;;;25.50;76.60;;;;;;5080284;28;20088;-72
2022/09/30 09:23:45;;;;;;;3.58;1.75;;;25.90;72.80;;;;;;5037147;28;20385;-71
2022/09/30 09:26:14;;;;;;;3.40;1.67;;;26.00;71.80;;;;;;5077891;28;20044;-71
2022/09/30 09:29:04;;;;;;;2.47;1.90;;;25.90;67.70;;;;;;5076791;28;20507;-71
2022/09/30 09:31:29;;;;;;;3.53;2.22;;;25.60;66.60;;;;;;5078329;28;20458;-71
2022/09/30 09:34:00;;;;;;;2.40;1.60;;;25.70;69.40;;;;;;5078736;28;20044;-71
2022/09/30 09:36:40;;;;;;;4.28;1.90;;;25.80;66.10;;;;;;5079690;28;20419;-71
2022/09/30 09:39:15;;;;;;;2.15;1.50;;;25.70;66.60;;;;;;5084003;28;20052;-71
2022/09/30 09:42:06;;;;;;;2.95;1.40;;;25.80;65.50;;;;;;5072454;28;20112;-71
2022/09/30 09:44:40;;;;;;;1.63;1.33;;;26.00;63.00;;;;;;5079301;28;20067;-71
2022/09/30 09:47:15;;;;;;;2.95;1.30;;;26.10;65.90;;;;;;5075160;28;20067;-71
2022/09/30 09:49:59;;;;;;;2.85;1.25;;;26.40;64.90;;;;;;5076080;28;20080;-71
2022/09/30 09:52:38;;;;;;;;;;;26.40;63.10;;;;;;5075001;28;20032;-71
2022/09/30 09:55:05;;;;;;;1.70;1.40;;;26.50;64.80;;;;;;5075640;28;20427;-71
2022/09/30 09:57:31;;;;;;;3.67;1.30;;;26.50;65.20;;;;;;5074116;28;20459;-71
2022/09/30 10:03:19;;;;;;;2.83;1.60;;;27.00;63.20;;;;;;5070317;28;20126;-71
2022/09/30 10:05:58;;;;;;;3.13;1.35;;;27.10;58.90;;;;;;5074493;28;20127;-72
2022/09/30 10:08:24;;;;;;;1.77;1.60;;;26.60;61.70;;;;;;5047862;28;20048;-71
2022/09/30 10:10:51;;;;;;;3.38;1.90;;;26.50;61.00;;;;;;5043143;28;20050;-71
2022/09/30 10:13:25;;;;;;;2.50;1.77;;;26.20;61.10;;;;;;5041349;28;20052;-72
2022/09/30 10:15:54;;;;;;;4.07;1.85;;;26.30;59.90;;;;;;5039697;28;20171;-71
2022/09/30 10:18:28;;;;;;;3.60;2.20;;;26.60;60.90;;;;;;5022079;28;20036;-72
2022/09/30 10:21:01;;;;;;;2.22;2.03;;;26.80;60.10;;;;;;5025320;28;20479;-72
2022/09/30 10:23:32;;;;;;;4.07;2.28;;;26.80;59.10;;;;;;5043932;28;20112;-71
2022/09/30 10:26:13;;;;;;;2.65;2.30;;;26.70;59.60;;;;;;5038819;28;20037;-71
2022/09/30 10:28:51;;;;;;;3.28;2.38;;;26.60;59.40;;;;;;5039855;28;20077;-71
2022/09/30 10:31:28;;;;;;;3.25;2.63;;;26.50;56.40;;;;;;5038298;28;20072;-71
2022/09/30 10:34:08;;;;;;;4.95;2.40;;;26.50;59.20;;;;;;5057097;28;20049;-71
2022/09/30 10:36:35;;;;;;;3.67;2.22;;;26.70;58.10;;;;;;5037811;28;20041;-71
2022/09/30 10:39:22;;;;;;;2.88;2.35;;;26.70;57.90;;;;;;5024086;28;20030;-72
2022/09/30 10:41:48;;;;;;;2.25;1.98;;;27.00;58.20;;;;;;5023230;28;20469;-72
2022/09/30 10:44:21;;;;;;;2.67;2.10;;;27.00;57.50;;;;;;5043711;28;20575;-72
2022/09/30 10:46:49;;;;;;;2.97;1.80;;;26.90;56.90;;;;;;5040931;28;20133;-72
2022/09/30 10:49:59;;;;;;;1.73;1.42;;;27.00;56.80;;;;;;5037682;28;20043;-72
2022/09/30 10:52:29;;;;;;;2.15;1.42;;;26.90;54.00;;;;;;4984037;28;20470;-72
2022/09/30 10:54:57;;;;;;;2.17;1.17;;;26.30;56.10;;;;;;4969273;28;20081;-72
2022/09/30 10:57:30;;;;;;;1.60;1.10;;;25.90;56.90;;;;;;5005375;28;20048;-71
2022/09/30 11:00:08;;;;;;;1.33;0.80;;;25.40;58.10;;;;;;5035011;28;20044;-72
2022/09/30 11:02:57;;;;;;;2.70;1.08;;;25.30;57.90;;;;;;5020772;28;20056;-71
2022/09/30 11:05:29;;;;;;;1.55;1.10;;;24.90;57.30;;;;;;5037493;28;20045;-71
2022/09/30 11:08:18;;;;;;;1.70;1.27;;;24.10;58.00;;;;;;5037091;28;20120;-71
2022/09/30 11:10:50;;;;;;;1.92;1.67;;;24.40;60.20;;;;;;5038338;28;20059;-71
2022/09/30 11:13:42;;;;;;;3.92;1.35;;;25.10;60.60;;;;;;5044626;28;20042;-71
2022/09/30 11:16:07;;;;;;;1.85;1.25;;;25.90;58.00;;;;;;5038426;28;20045;-71
2022/09/30 11:19:00;;;;;;;2.35;1.48;;;25.90;58.70;;;;;;5037344;28;20067;-71
2022/09/30 11:21:34;;;;;;;2.58;1.73;;;26.20;56.40;;;;;;5046105;28;20033;-71
2022/09/30 11:24:24;;;;;;;2.03;1.55;;;26.30;57.00;;;;;;5046029;28;20044;-71
2022/09/30 11:27:15;;;;;;;1.73;1.50;;;26.50;56.80;;;;;;5041900;28;20037;-70
2022/09/30 11:29:49;;;;;;;3.45;1.63;;;26.70;56.90;;;;;;5035819;28;20107;-71
2022/09/30 11:32:30;;;;;;;1.50;1.10;;;26.70;55.80;;;;;;5042064;28;20045;-70
2022/09/30 11:35:25;;;;;;;2.38;1.45;;;26.80;56.50;;;;;;5043845;28;20385;-70
2022/09/30 11:37:56;;;;;;;3.85;1.88;;;27.20;55.10;;;;;;5042013;28;20037;-70
2022/09/30 11:40:37;;;;;;;1.88;1.45;;;26.90;53.80;;;;;;5031359;28;20061;-70
2022/09/30 11:43:18;;;;;;;2.72;1.70;;;25.90;53.60;;;;;;5041494;28;20171;-70
2022/09/30 11:46:12;;;;;;;2.75;1.48;;;24.90;55.80;;;;;;5039183;28;20040;-69
2022/09/30 11:48:57;;;;;;;5.50;1.73;;;25.10;58.80;;;;;;5033937;28;20045;-70
2022/09/30 11:51:45;;;;;;;2.63;1.80;;;25.60;58.60;;;;;;5046042;28;20094;-70
2022/09/30 11:54:35;;;;;;;2.42;2.00;;;26.00;57.60;;;;;;5038877;28;20147;-70
2022/09/30 11:57:24;;;;;;;3.58;2.03;;;26.40;56.80;;;;;;5042244;28;20053;-70
2022/09/30 12:00:04;;;;;;;5.65;2.40;;;26.40;54.50;;;;;;5040396;28;20449;-69
2022/09/30 12:02:39;;;;;;;3.63;2.42;;;25.70;54.80;;;;;;5037473;28;20053;-69
2022/09/30 12:05:29;;;;;;;4.88;2.65;;;24.50;56.20;;;;;;5034734;28;20041;-69
2022/09/30 12:08:17;;;;;;;3.33;2.83;;;23.20;57.30;;;;;;5014882;28;20108;-68
2022/09/30 12:10:53;;;;;;;3.97;3.30;;;22.00;60.00;;;;;;5035559;28;20546;-68
2022/09/30 12:13:33;;;;;;;3.50;2.88;;;21.20;62.60;;;;;;5041420;28;20028;-68
2022/09/30 12:16:03;;;;;;;7.10;4.10;;;20.90;64.60;;;;;;5036826;28;20036;-68
2022/09/30 12:18:41;;;;;;;4.55;4.13;;;20.80;65.50;;;;;;5039070;28;20041;-68
2022/09/30 12:21:23;;;;;;;5.05;3.78;;;21.30;66.00;;;;;;5040135;28;20041;-68
2022/09/30 12:24:16;;;;;;;4.75;4.13;;;22.20;63.50;;;;;;5042063;28;20573;-68
2022/09/30 12:26:43;;;;;;;3.95;3.40;;;21.90;63.50;;;;;;5040115;28;20045;-68
2022/09/30 12:33:10;;;;;;;5.10;4.60;;;22.40;64.40;;;;;;5041627;28;20053;-69
2022/09/30 12:35:47;;;;;;;6.13;5.53;;;22.30;64.20;;;;;;4988444;28;20042;-69
2022/09/30 12:38:41;;;;;;;6.03;5.22;;;22.60;62.60;;;;;;4984899;28;20056;-69
2022/09/30 12:41:51;;;;;;;5.95;5.45;;;21.90;62.80;;;;;;5026905;28;20053;-69
2022/09/30 12:44:36;;;;;;;5.78;5.28;;;21.20;63.50;;;;;;5038404;28;20052;-69
2022/09/30 12:47:07;;;;;;;;;;;21.60;64.20;;;;;;5044820;28;20045;-69
2022/09/30 12:49:37;;;;;;;6.40;5.80;;;21.80;65.10;;;;;;5040731;28;19924;-69
2022/09/30 12:52:10;;;;;;;6.07;5.43;;;22.40;63.30;;;;;;5044220;28;20397;-69
2022/09/30 12:54:52;;;;;;;6.85;6.30;;;23.20;62.20;;;;;;5041065;28;20156;-69
2022/09/30 12:57:32;;;;;;;8.25;7.45;;;23.50;60.50;;;;;;5034351;28;20068;-69
2022/09/30 13:00:13;;;;;;;12.32;10.90;;;23.40;58.20;;;;;;5045235;28;20040;-69
2022/09/30 13:02:43;;;;;;;7.10;6.40;;;22.50;61.00;;;;;;5040936;28;20045;-69
2022/09/30 13:05:30;;;;;;;6.28;5.43;;;21.30;62.50;;;;;;5047887;28;20090;-69
2022/09/30 13:08:04;;;;;;;9.70;8.80;;;20.60;65.50;;;;;;5044547;28;20129;-69
2022/09/30 13:10:32;;;;;;;9.55;7.20;;;20.70;66.40;;;;;;5044223;28;20079;-70
2022/09/30 13:13:22;;;;;;;10.07;9.15;;;20.30;66.20;;;;;;5023673;28;20052;-70
2022/09/30 13:15:49;;;;;;;6.20;5.60;;;19.90;67.80;;;;;;5046420;28;20037;-69
2022/09/30 13:18:25;;;;;;;6.03;5.43;;;19.80;68.20;;;;;;5044098;28;20083;-69
2022/09/30 13:21:21;;;;;;;7.82;5.40;;;19.80;67.20;;;;;;5029507;28;20099;-70
2022/09/30 13:23:57;;;;;;;6.65;5.55;;;19.40;67.90;;;;;;5029164;28;20045;-70
2022/09/30 13:28:50;;;;;;;5.10;4.70;;;19.50;70.50;;;;;;5046690;28;20105;-70
2022/09/30 13:31:18;;;;;;;6.97;4.85;;;19.80;68.90;;;;;;5044835;28;20053;-70
2022/09/30 13:34:11;;;;;;;4.85;4.32;;;19.90;68.20;;;;;;5043249;28;20500;-70